createdAt,value
2023-01-08T00:00:59.047Z,39.93
2023-01-08T00:04:19.716Z,40.80
2023-01-08T00:07:21.740Z,45.17
2023-01-08T00:10:23.962Z,40.77
2023-01-08T00:13:26.748Z,41.37
2023-01-08T00:16:29.688Z,38.27
2023-01-08T00:19:31.736Z,39.60
2023-01-08T00:22:33.968Z,43.23
2023-01-08T00:25:35.991Z,42.87
2023-01-08T00:28:38.930Z,41.80
2023-01-08T00:31:40.936Z,42.50
2023-01-08T00:34:43.305Z,43.37
2023-01-08T00:37:45.398Z,39.00
2023-01-08T00:40:48.802Z,40.80
2023-01-08T00:43:50.838Z,42.73
2023-01-08T00:46:53.083Z,39.47
2023-01-08T00:49:55.188Z,37.17
2023-01-08T00:52:57.775Z,43.17
2023-01-08T00:56:10.039Z,41.90
2023-01-08T00:59:12.706Z,40.57
2023-01-08T01:02:14.899Z,40.23
2023-01-08T01:05:17.609Z,40.83
2023-01-08T01:08:19.659Z,38.77
2023-01-08T01:11:27.765Z,39.00
2023-01-08T01:14:29.725Z,42.63
2023-01-08T01:17:32.075Z,40.27
2023-01-08T01:20:34.075Z,40.27
2023-01-08T01:23:36.599Z,41.73
2023-01-08T01:26:39.197Z,40.83
2023-01-08T01:29:41.561Z,41.17
2023-01-08T01:32:43.514Z,39.60
2023-01-08T01:35:45.726Z,36.77
2023-01-08T01:38:49.494Z,37.60
2023-01-08T01:41:53.315Z,36.53
2023-01-08T01:44:55.309Z,40.13
2023-01-08T01:48:06.379Z,37.13
2023-01-08T01:51:08.396Z,33.20
2023-01-08T01:54:13.155Z,41.60
2023-01-08T01:57:15.380Z,37.37
2023-01-08T02:00:18.153Z,37.50
2023-01-08T02:03:25.971Z,36.63
2023-01-08T02:06:52.278Z,37.47
2023-01-08T02:10:23.187Z,38.80
2023-01-08T02:13:33.688Z,42.47
2023-01-08T02:16:58.078Z,34.60
2023-01-08T02:20:37.408Z,34.23
2023-01-08T02:24:18.291Z,37.60
2023-01-08T02:27:24.110Z,36.10
2023-01-08T02:30:26.649Z,37.63
2023-01-08T02:33:29.876Z,38.27
2023-01-08T02:36:39.894Z,32.97
2023-01-08T02:40:04.745Z,39.50
2023-01-08T02:43:14.602Z,38.37
2023-01-08T02:46:25.902Z,37.77
2023-01-08T02:49:32.298Z,35.83
2023-01-08T02:52:41.028Z,41.10
2023-01-08T02:55:48.814Z,39.53
2023-01-08T02:58:53.022Z,39.27
2023-01-08T03:01:55.641Z,34.03
2023-01-08T03:05:04.948Z,37.53
2023-01-08T03:08:07.645Z,35.70
2023-01-08T03:11:13.311Z,32.97
2023-01-08T03:14:43.463Z,32.30
2023-01-08T03:17:50.050Z,35.47
2023-01-08T03:20:52.937Z,34.07
2023-01-08T03:23:57.037Z,30.73
2023-01-08T03:27:04.071Z,27.07
2023-01-08T03:30:08.084Z,33.13
2023-01-08T03:33:12.688Z,29.70
2023-01-08T03:36:20.218Z,29.40
2023-01-08T03:39:33.916Z,32.43
2023-01-08T03:42:36.195Z,28.30
2023-01-08T03:45:40.524Z,31.37
2023-01-08T03:48:43.835Z,32.93
2023-01-08T03:51:47.470Z,29.30
2023-01-08T03:54:49.804Z,28.93
2023-01-08T03:57:51.771Z,32.03
2023-01-08T04:00:54.321Z,33.40
2023-01-08T04:03:56.398Z,33.80
2023-01-08T04:06:58.648Z,31.83
2023-01-08T04:10:00.632Z,30.47
2023-01-08T04:13:02.866Z,30.60
2023-01-08T04:16:05.359Z,30.20
2023-01-08T04:19:07.657Z,31.80
2023-01-08T04:22:11.132Z,31.77
2023-01-08T04:25:13.420Z,33.80
2023-01-08T04:28:15.424Z,33.50
2023-01-08T04:31:17.753Z,31.63
2023-01-08T04:34:19.772Z,33.47
2023-01-08T04:37:22.110Z,32.53
2023-01-08T04:40:24.148Z,31.70
2023-01-08T04:43:27.454Z,29.67
2023-01-08T04:46:29.706Z,33.33
2023-01-08T04:49:32.082Z,31.07
2023-01-08T04:52:34.260Z,31.67
2023-01-08T04:55:37.953Z,31.53
2023-01-08T04:58:41.614Z,32.60
2023-01-08T05:01:44.088Z,34.80
2023-01-08T05:04:47.429Z,30.63
2023-01-08T05:07:49.728Z,31.40
2023-01-08T05:10:51.686Z,31.87
2023-01-08T05:13:54.697Z,33.70
2023-01-08T05:16:56.700Z,34.87
2023-01-08T05:19:58.951Z,31.33
2023-01-08T05:23:01.570Z,35.53
2023-01-08T05:26:06.174Z,34.03
2023-01-08T05:29:08.156Z,34.97
2023-01-08T05:32:16.167Z,35.20
2023-01-08T05:35:18.328Z,33.33
2023-01-08T05:38:20.913Z,32.10
2023-01-08T05:41:22.973Z,34.20
2023-01-08T05:44:25.248Z,33.67
2023-01-08T05:47:30.729Z,32.13
2023-01-08T05:50:33.372Z,35.50
2023-01-08T05:53:36.101Z,37.03
2023-01-08T05:56:38.612Z,35.87
2023-01-08T05:59:40.607Z,32.40
2023-01-08T06:02:47.640Z,35.57
2023-01-08T06:05:50.036Z,35.33
2023-01-08T06:08:52.977Z,35.27
2023-01-08T06:11:54.993Z,32.53
2023-01-08T06:14:57.206Z,31.17
2023-01-08T06:18:03.244Z,34.20
2023-01-08T06:21:05.909Z,32.43
2023-01-08T06:24:08.059Z,30.20
2023-01-08T06:27:10.407Z,29.00
2023-01-08T06:30:12.999Z,32.17
2023-01-08T06:33:15.484Z,30.80
2023-01-08T06:36:17.609Z,29.23
2023-01-08T06:39:19.894Z,32.37
2023-01-08T06:42:21.888Z,29.17
2023-01-08T06:45:24.125Z,32.93
2023-01-08T06:48:26.511Z,30.57
2023-01-08T06:51:28.752Z,33.30
2023-01-08T06:54:31.072Z,34.33
2023-01-08T06:57:33.375Z,33.03
2023-01-08T07:00:35.376Z,31.70
2023-01-08T07:03:37.653Z,32.70
2023-01-08T07:06:39.777Z,35.70
2023-01-08T07:09:42.827Z,35.37
2023-01-08T07:12:44.826Z,36.07
2023-01-08T07:15:47.152Z,35.17
2023-01-08T07:18:49.160Z,37.13
2023-01-08T07:21:51.415Z,32.00
2023-01-08T07:24:53.689Z,36.17
2023-01-08T07:27:55.939Z,40.37
2023-01-08T07:30:58.096Z,37.13
2023-01-08T07:34:00.407Z,41.67
2023-01-08T07:37:03.311Z,34.57
2023-01-08T07:40:06.304Z,35.00
2023-01-08T07:43:12.418Z,39.77
2023-01-08T07:46:15.273Z,41.33
2023-01-08T07:49:17.456Z,40.10
2023-01-08T07:52:19.684Z,41.00
2023-01-08T07:55:21.799Z,38.40
2023-01-08T07:58:24.048Z,36.97
2023-01-08T08:01:26.509Z,44.50
2023-01-08T08:04:28.915Z,40.77
2023-01-08T08:07:31.569Z,37.50
2023-01-08T08:10:33.952Z,38.83
2023-01-08T08:13:35.946Z,38.87
2023-01-08T08:16:38.592Z,41.87
2023-01-08T08:19:46.205Z,40.17
2023-01-08T08:22:48.477Z,37.13
2023-01-08T08:25:51.876Z,37.73
2023-01-08T08:28:54.181Z,38.97
2023-01-08T08:31:56.161Z,36.57
2023-01-08T08:34:58.444Z,37.47
2023-01-08T08:38:00.876Z,35.73
2023-01-08T08:41:03.267Z,36.37
2023-01-08T08:44:05.493Z,36.50
2023-01-08T08:47:09.243Z,33.90
2023-01-08T08:50:11.220Z,36.67
2023-01-08T08:53:13.471Z,37.53
2023-01-08T08:56:15.435Z,37.73
2023-01-08T08:59:17.667Z,35.67
2023-01-08T09:02:20.290Z,32.47
2023-01-08T09:05:22.649Z,38.13
2023-01-08T09:08:24.641Z,38.20
2023-01-08T09:11:26.884Z,38.63
2023-01-08T09:14:28.900Z,34.13
2023-01-08T09:17:31.275Z,34.03
2023-01-08T09:20:33.338Z,34.20
2023-01-08T09:23:36.011Z,33.07
2023-01-08T09:26:38.038Z,33.00
2023-01-08T09:29:40.275Z,37.47
2023-01-08T09:32:42.240Z,35.67
2023-01-08T09:35:44.984Z,30.27
2023-01-08T09:38:47.120Z,35.77
2023-01-08T09:41:51.613Z,33.97
2023-01-08T09:44:57.253Z,34.63
2023-01-08T09:48:03.335Z,35.07
2023-01-08T09:51:09.680Z,35.67
2023-01-08T09:54:16.336Z,29.83
2023-01-08T09:57:20.975Z,31.80
2023-01-08T10:00:29.369Z,31.93
2023-01-08T10:03:44.248Z,32.10
2023-01-08T10:06:51.600Z,32.90
2023-01-08T10:09:54.712Z,30.40
2023-01-08T10:12:58.148Z,32.97
2023-01-08T10:16:01.652Z,29.40
2023-01-08T10:19:05.183Z,28.13
2023-01-08T10:22:17.471Z,27.43
2023-01-08T10:25:22.885Z,26.30
2023-01-08T10:28:30.201Z,26.70
2023-01-08T10:31:33.168Z,27.37
2023-01-08T10:34:51.459Z,28.00
2023-01-08T10:37:54.360Z,26.60
2023-01-08T10:40:57.073Z,25.83
2023-01-08T10:44:03.634Z,26.73
2023-01-08T10:47:06.331Z,25.57
2023-01-08T10:50:20.410Z,27.23
2023-01-08T10:53:26.329Z,26.83
2023-01-08T10:56:31.996Z,26.43
2023-01-08T10:59:36.482Z,26.33
2023-01-08T11:02:40.307Z,24.43
2023-01-08T11:05:43.095Z,28.20
2023-01-08T11:08:53.633Z,27.47
2023-01-08T11:11:56.047Z,25.70
2023-01-08T11:14:58.992Z,22.60
2023-01-08T11:18:16.673Z,25.47
2023-01-08T11:21:25.629Z,27.40
2023-01-08T11:24:37.753Z,26.13
2023-01-08T11:27:44.476Z,24.80
2023-01-08T11:30:55.325Z,26.23
2023-01-08T11:34:07.697Z,28.43
2023-01-08T11:37:20.633Z,28.87
2023-01-08T11:40:29.303Z,27.27
2023-01-08T11:43:37.279Z,28.70
2023-01-08T11:47:08.793Z,28.73
2023-01-08T11:50:18.134Z,28.00
2023-01-08T11:53:52.838Z,28.00
2023-01-08T11:57:06.736Z,29.10
2023-01-08T12:00:32.464Z,28.60
2023-01-08T12:03:44.889Z,29.57
2023-01-08T12:07:05.353Z,28.77
2023-01-08T12:10:42.777Z,29.27
2023-01-08T12:13:55.534Z,27.07
2023-01-08T12:17:03.335Z,27.57
2023-01-08T12:20:05.549Z,26.10
2023-01-08T12:23:19.437Z,27.13
2023-01-08T12:27:01.843Z,28.40
2023-01-08T12:30:36.510Z,25.87
2023-01-08T12:33:43.771Z,28.17
2023-01-08T12:36:54.094Z,25.60
2023-01-08T12:40:23.852Z,27.80
2023-01-08T12:43:37.387Z,37.70
2023-01-08T12:46:43.312Z,28.47
2023-01-08T12:49:56.993Z,23.40
2023-01-08T12:53:06.453Z,24.53
2023-01-08T12:56:11.190Z,26.20
2023-01-08T12:59:25.210Z,25.07
2023-01-08T13:03:02.182Z,25.07
2023-01-08T13:06:11.960Z,26.80
2023-01-08T13:09:24.665Z,25.67
2023-01-08T13:12:37.704Z,25.70
2023-01-08T13:15:39.723Z,28.03
2023-01-08T13:18:58.331Z,24.27
2023-01-08T13:22:01.089Z,24.77
2023-01-08T13:25:15.352Z,28.30
2023-01-08T13:28:38.724Z,28.53
2023-01-08T13:31:41.685Z,27.07
2023-01-08T13:34:43.755Z,28.00
2023-01-08T13:37:51.954Z,26.20
2023-01-08T13:40:56.719Z,25.83
2023-01-08T13:44:06.293Z,23.93
2023-01-08T13:47:33.778Z,26.20
2023-01-08T13:50:37.322Z,24.53
2023-01-08T13:53:42.551Z,26.47
2023-01-08T13:56:46.729Z,24.03
2023-01-08T14:00:00.017Z,27.03
2023-01-08T14:03:02.430Z,26.30
2023-01-08T14:06:13.490Z,26.63
2023-01-08T14:09:24.047Z,25.37
2023-01-08T14:12:26.280Z,24.87
2023-01-08T14:15:29.442Z,26.17
2023-01-08T14:18:32.453Z,25.27
2023-01-08T14:21:35.056Z,26.93
2023-01-08T14:24:37.195Z,26.13
2023-01-08T14:27:39.902Z,27.93
2023-01-08T14:30:51.800Z,26.97
2023-01-08T14:33:57.207Z,27.43
2023-01-08T14:36:59.240Z,30.30
2023-01-08T14:40:01.548Z,27.53
2023-01-08T14:43:08.473Z,30.30
2023-01-08T14:46:27.282Z,31.70
2023-01-08T14:49:34.268Z,38.13
2023-01-08T14:52:40.607Z,32.40
2023-01-08T14:55:45.841Z,32.53
2023-01-08T14:58:48.864Z,30.83
2023-01-08T15:01:58.589Z,31.83
2023-01-08T15:05:20.760Z,32.50
2023-01-08T15:08:24.218Z,32.67
2023-01-08T15:11:36.114Z,31.20
2023-01-08T15:14:39.357Z,32.30
2023-01-08T15:17:41.788Z,34.57
2023-01-08T15:20:45.124Z,38.47
2023-01-08T15:23:55.787Z,62.30
2023-01-08T15:26:59.227Z,66.47
2023-01-08T15:30:03.641Z,67.97
2023-01-08T15:33:31.925Z,63.77
2023-01-08T15:36:34.557Z,49.57
2023-01-08T15:39:36.714Z,75.30
2023-01-08T15:42:57.507Z,66.87
2023-01-08T15:45:59.639Z,56.97
2023-01-08T15:49:01.937Z,59.03
2023-01-08T15:52:04.161Z,61.70
2023-01-08T15:55:07.680Z,64.50
2023-01-08T15:58:12.297Z,56.90
2023-01-08T16:01:14.689Z,56.77
2023-01-08T16:04:16.811Z,52.37
2023-01-08T16:07:19.572Z,51.73
2023-01-08T16:10:21.671Z,46.93
2023-01-08T16:13:24.043Z,47.63
2023-01-08T16:16:26.007Z,42.43
2023-01-08T16:19:30.399Z,45.00
2023-01-08T16:22:32.372Z,41.93
2023-01-08T16:25:35.205Z,39.20
2023-01-08T16:28:37.357Z,39.47
2023-01-08T16:31:39.725Z,40.57
2023-01-08T16:34:41.713Z,41.37
2023-01-08T16:37:43.969Z,43.50
2023-01-08T16:40:45.969Z,40.90
2023-01-08T16:43:48.369Z,39.67
2023-01-08T16:46:50.818Z,42.17
2023-01-08T16:49:53.152Z,56.87
2023-01-08T16:52:55.107Z,51.47
2023-01-08T16:56:00.018Z,72.70
2023-01-08T16:59:02.849Z,47.10
2023-01-08T17:02:06.607Z,49.77
2023-01-08T17:05:08.960Z,65.80
2023-01-08T17:08:15.763Z,47.67
2023-01-08T17:11:20.558Z,35.90
2023-01-08T17:14:22.905Z,35.97
2023-01-08T17:17:24.871Z,35.23
2023-01-08T17:20:27.253Z,40.87
2023-01-08T17:23:29.455Z,36.20
2023-01-08T17:26:31.927Z,36.20
2023-01-08T17:29:34.105Z,35.97
2023-01-08T17:32:36.632Z,36.33
2023-01-08T17:35:38.649Z,33.13
2023-01-08T17:38:42.913Z,30.00
2023-01-08T17:42:03.498Z,30.93
2023-01-08T17:45:07.616Z,35.37
2023-01-08T17:48:09.797Z,33.47
2023-01-08T17:51:14.225Z,30.87
2023-01-08T17:54:17.144Z,31.13
2023-01-08T17:57:21.264Z,37.27
2023-01-08T18:00:23.399Z,33.73
2023-01-08T18:03:26.233Z,34.87
2023-01-08T18:06:28.448Z,49.43
2023-01-08T18:09:31.032Z,77.43
2023-01-08T18:12:33.097Z,37.53
2023-01-08T18:15:35.466Z,33.33
2023-01-08T18:18:38.253Z,32.10
2023-01-08T18:21:40.609Z,29.87
2023-01-08T18:24:42.891Z,30.87
2023-01-08T18:27:45.291Z,32.40
2023-01-08T18:30:47.643Z,35.33
2023-01-08T18:33:51.779Z,34.10
2023-01-08T18:36:53.737Z,35.27
2023-01-08T18:39:55.982Z,36.40
2023-01-08T18:42:57.996Z,37.63
2023-01-08T18:46:07.709Z,35.70
2023-01-08T18:49:09.881Z,34.30
2023-01-08T18:52:14.039Z,35.87
2023-01-08T18:55:16.165Z,34.27
2023-01-08T18:58:18.430Z,34.27
2023-01-08T19:01:20.566Z,35.60
2023-01-08T19:04:22.872Z,35.63
2023-01-08T19:07:25.771Z,34.40
2023-01-08T19:10:28.157Z,38.67
2023-01-08T19:13:30.185Z,37.97
2023-01-08T19:16:32.510Z,44.20
2023-01-08T19:19:34.669Z,40.07
2023-01-08T19:22:37.247Z,37.93
2023-01-08T19:25:40.468Z,36.63
2023-01-08T19:28:43.225Z,38.00
2023-01-08T19:31:46.171Z,37.67
2023-01-08T19:34:48.650Z,36.13
2023-01-08T19:37:50.739Z,38.93
2023-01-08T19:40:58.124Z,39.77
2023-01-08T19:44:00.333Z,57.80
2023-01-08T19:47:02.648Z,41.10
2023-01-08T19:50:06.362Z,41.00
2023-01-08T19:53:09.046Z,42.47
2023-01-08T19:56:13.306Z,42.23
2023-01-08T19:59:15.650Z,38.50
2023-01-08T20:02:17.908Z,40.83
2023-01-08T20:05:20.223Z,36.33
2023-01-08T20:08:22.252Z,36.87
2023-01-08T20:11:25.474Z,40.13
2023-01-08T20:14:27.811Z,39.73
2023-01-08T20:17:30.337Z,44.03
2023-01-08T20:20:32.432Z,37.87
2023-01-08T20:23:38.882Z,39.53
2023-01-08T20:26:46.314Z,41.53
2023-01-08T20:29:48.703Z,42.73
2023-01-08T20:35:58.570Z,39.60
2023-01-08T20:39:03.899Z,42.10
2023-01-08T20:42:07.156Z,41.83
2023-01-08T20:45:10.039Z,45.00
2023-01-08T20:48:12.376Z,45.73
2023-01-08T20:51:16.822Z,48.93
2023-01-08T20:54:21.515Z,47.97
2023-01-08T20:57:23.637Z,40.40
2023-01-08T21:00:26.030Z,42.40
2023-01-08T21:03:28.095Z,44.30
2023-01-08T21:06:33.060Z,42.73
2023-01-08T21:09:35.309Z,39.63
2023-01-08T21:12:37.759Z,38.47
2023-01-08T21:15:39.997Z,46.07
2023-01-08T21:18:47.159Z,41.63
2023-01-08T21:21:49.433Z,43.43
2023-01-08T21:24:52.313Z,40.27
2023-01-08T21:27:54.507Z,41.23
2023-01-08T21:31:19.244Z,41.30
2023-01-08T21:34:21.645Z,35.63
2023-01-08T21:37:24.141Z,34.43
2023-01-08T21:40:26.180Z,36.67
2023-01-08T21:43:47.116Z,41.13
2023-01-08T21:46:49.832Z,35.37
2023-01-08T21:49:52.451Z,38.83
2023-01-08T21:53:12.851Z,34.70
2023-01-08T21:56:15.758Z,35.37
2023-01-08T21:59:18.067Z,32.20
2023-01-08T22:02:22.236Z,34.60
2023-01-08T22:05:24.510Z,31.47
2023-01-08T22:08:28.103Z,36.87
2023-01-08T22:11:30.168Z,40.17
2023-01-08T22:14:32.589Z,32.93
2023-01-08T22:17:34.659Z,36.77
2023-01-08T22:20:37.189Z,37.00
2023-01-08T22:23:39.726Z,36.43
2023-01-08T22:26:41.975Z,35.77
2023-01-08T22:29:44.006Z,40.77
2023-01-08T22:32:46.520Z,38.33
2023-01-08T22:35:48.531Z,38.33
2023-01-08T22:38:50.788Z,37.47
2023-01-08T22:41:52.844Z,41.50
2023-01-08T22:44:55.167Z,36.97
2023-01-08T22:47:57.364Z,38.60
2023-01-08T22:51:03.791Z,43.00
2023-01-08T22:54:07.266Z,35.53
2023-01-08T22:57:09.889Z,39.43
2023-01-08T23:00:12.516Z,49.37
2023-01-08T23:03:14.827Z,50.83
2023-01-08T23:06:17.955Z,52.80
2023-01-08T23:09:20.443Z,51.03
2023-01-08T23:12:22.455Z,47.17
2023-01-08T23:15:25.716Z,41.20
2023-01-08T23:18:27.733Z,39.60
2023-01-08T23:21:29.997Z,36.47
2023-01-08T23:24:32.437Z,40.40
2023-01-08T23:27:34.828Z,41.67
2023-01-08T23:30:39.973Z,37.50
2023-01-08T23:33:43.754Z,39.53
2023-01-08T23:36:45.773Z,39.83
2023-01-08T23:39:48.512Z,42.30
2023-01-08T23:42:50.461Z,43.47
2023-01-08T23:45:52.980Z,41.30
2023-01-08T23:48:55.844Z,40.70
2023-01-08T23:51:58.547Z,43.63
2023-01-08T23:55:00.521Z,40.50
2023-01-08T23:58:02.814Z,41.30
